Time;durP1;ratioP1;P1;durP2;ratioP2;P2;SDS_P1;SDS_P2;PMS_P1;PMS_P2;Temp;Humidity;BMP_temperature;BMP_pressure;BME280_temperature;BME280_humidity;BME280_pressure;Samples;Min_cycle;Max_cycle;Signal;HPM_P1;HPM_P2
2022/05/27 00:01:48;;;;;;;3.65;1.48;;;;;;;18.55;66.06;100800.56;5008291;28;20463;-66
2022/05/27 00:04:13;;;;;;;5.82;1.92;;;;;;;18.41;66.22;100776.84;5008020;28;20392;-65
2022/05/27 00:06:39;;;;;;;2.40;1.60;;;;;;;18.55;66.17;100801.41;5011046;28;20029;-65
2022/05/27 00:09:04;;;;;;;2.15;1.08;;;;;;;18.54;66.24;100805.13;5015518;28;20060;-65
2022/05/27 00:11:30;;;;;;;2.97;1.40;;;;;;;18.51;66.62;100789.19;5024380;28;20084;-65
2022/05/27 00:13:55;;;;;;;2.63;1.70;;;;;;;18.47;66.82;100787.00;5027481;28;20037;-66
2022/05/27 00:16:21;;;;;;;1.67;1.30;;;;;;;18.48;66.15;100786.84;5027429;28;20142;-66
2022/05/27 00:18:47;;;;;;;2.33;1.35;;;;;;;18.50;65.73;100792.09;5059509;28;20399;-65
2022/05/27 00:21:13;;;;;;;1.88;1.30;;;;;;;18.45;66.00;100780.88;5016035;28;20044;-66
2022/05/27 00:23:39;;;;;;;3.17;1.50;;;;;;;18.44;66.49;100785.47;5016035;28;20481;-65
2022/05/27 00:26:05;;;;;;;1.88;1.60;;;;;;;18.39;66.66;100782.44;5027444;28;20043;-66
2022/05/27 00:28:31;;;;;;;1.85;1.35;;;;;;;18.34;67.03;100776.63;5027568;28;20099;-66
2022/05/27 00:30:57;;;;;;;1.40;1.30;;;;;;;18.36;67.69;100780.06;5013278;28;20034;-65
2022/05/27 00:33:22;;;;;;;1.30;1.17;;;;;;;18.38;67.30;100785.31;5007274;28;20075;-65
2022/05/27 00:35:49;;;;;;;2.60;1.20;;;;;;;18.33;67.87;100774.94;5015302;28;20029;-65
2022/05/27 00:38:15;;;;;;;4.05;1.60;;;;;;;18.32;67.95;100784.13;5020302;28;20156;-64
2022/05/27 00:40:48;;;;;;;1.83;1.25;;;;;;;18.30;68.39;100778.00;5027448;28;20582;-65
2022/05/27 00:43:14;;;;;;;1.85;1.38;;;;;;;18.24;68.38;100770.53;5041174;28;20025;-64
2022/05/27 00:45:43;;;;;;;3.00;1.45;;;;;;;18.31;68.50;100778.88;5018563;28;20034;-66
2022/05/27 00:48:15;;;;;;;4.80;1.80;;;;;;;18.31;69.21;100782.41;5027087;28;20041;-66
2022/05/27 00:50:44;;;;;;;3.20;1.73;;;;;;;18.32;69.61;100781.41;5027064;28;20358;-66
2022/05/27 00:53:13;;;;;;;3.13;2.13;;;;;;;18.32;69.81;100780.56;5042112;28;20568;-64
2022/05/27 00:55:46;;;;;;;3.75;2.00;;;;;;;18.27;69.89;100778.34;5027309;28;20095;-66
2022/05/27 00:58:23;;;;;;;2.65;1.88;;;;;;;18.32;70.51;100775.13;5029501;28;20128;-66
2022/05/27 01:00:50;;;;;;;1.90;1.63;;;;;;;18.30;70.21;100769.84;5065736;28;20029;-64
2022/05/27 01:03:17;;;;;;;3.67;2.33;;;;;;;18.36;69.54;100782.78;5033690;28;20013;-64
2022/05/27 01:05:45;;;;;;;3.80;2.50;;;;;;;18.36;70.21;100782.78;5048926;28;20026;-65
2022/05/27 01:08:14;;;;;;;3.10;2.28;;;;;;;18.33;70.82;100765.94;5022977;28;20386;-64
2022/05/27 01:11:06;;;;;;;3.72;3.13;;;;;;;18.33;71.23;100780.38;5013755;28;20105;-65
2022/05/27 01:13:55;;;;;;;5.38;3.47;;;;;;;18.31;70.87;100768.81;5003030;28;20056;-65
2022/05/27 01:16:41;;;;;;;6.40;4.07;;;;;;;18.26;70.47;100765.81;5013468;28;20394;-65
2022/05/27 01:22:34;;;;;;;5.18;3.53;;;;;;;18.22;71.34;100767.19;5013309;28;20043;-65
2022/05/27 01:25:30;;;;;;;6.65;3.30;;;;;;;18.19;71.47;100767.53;5013891;28;20462;-65
2022/05/27 01:27:56;;;;;;;5.28;3.42;;;;;;;18.17;71.70;100774.13;5013975;28;20432;-64
2022/05/27 01:30:22;;;;;;;6.07;2.70;;;;;;;18.12;71.92;100771.09;5013358;28;20046;-66
2022/05/27 01:32:57;;;;;;;3.90;3.05;;;;;;;18.11;72.29;100770.22;5013668;28;20042;-65
2022/05/27 01:35:23;;;;;;;5.10;2.97;;;;;;;18.08;72.17;100778.72;5013419;28;20061;-65
2022/05/27 01:37:57;;;;;;;3.25;2.30;;;;;;;18.00;71.94;100762.44;5013751;28;20082;-65
2022/05/27 01:40:33;;;;;;;4.30;3.08;;;;;;;17.98;73.30;100767.19;5013283;28;20024;-65
2022/05/27 01:43:21;;;;;;;3.75;2.40;;;;;;;17.97;73.95;100773.66;5013809;28;20030;-66
2022/05/27 01:46:11;;;;;;;3.25;2.22;;;;;;;17.85;73.27;100764.16;5013971;28;20108;-65
2022/05/27 01:48:43;;;;;;;3.40;2.63;;;;;;;17.90;73.11;100780.78;5013492;28;20064;-65
2022/05/27 01:51:22;;;;;;;3.22;2.28;;;;;;;17.84;74.10;100766.00;5013269;28;20030;-66
2022/05/27 01:53:59;;;;;;;5.07;2.85;;;;;;;17.83;73.95;100772.47;5024683;28;20033;-65
2022/05/27 01:57:07;;;;;;;3.10;2.33;;;;;;;17.77;74.78;100778.56;5020140;28;20025;-63
2022/05/27 02:00:01;;;;;;;4.07;2.30;;;;;;;17.72;75.13;100767.38;5010490;28;20156;-64
2022/05/27 02:02:29;;;;;;;5.05;2.90;;;;;;;17.72;75.01;100761.97;4993958;28;20033;-66
2022/05/27 02:05:05;;;;;;;2.97;2.05;;;;;;;17.72;73.69;100761.09;5026641;28;20041;-65
2022/05/27 02:07:48;;;;;;;2.40;2.20;;;;;;;17.71;73.69;100754.00;5033059;28;20026;-66
2022/05/27 02:10:24;;;;;;;2.55;2.08;;;;;;;17.77;74.17;100754.13;5061785;28;20041;-65
2022/05/27 02:12:56;;;;;;;2.67;1.92;;;;;;;17.79;73.26;100759.41;5030102;28;20024;-66
2022/05/27 02:15:45;;;;;;;3.45;2.10;;;;;;;17.81;73.13;100755.53;5045031;28;20422;-66
2022/05/27 02:18:32;;;;;;;2.40;2.20;;;;;;;17.79;73.98;100746.69;5024798;28;20588;-66
2022/05/27 02:21:10;;;;;;;3.85;2.17;;;;;;;17.87;72.95;100748.56;5010328;28;20026;-66
2022/05/27 02:23:49;;;;;;;2.25;2.05;;;;;;;17.88;72.56;100761.09;5018566;28;20026;-65
2022/05/27 02:26:19;;;;;;;3.55;2.08;;;;;;;17.88;72.46;100753.81;5008718;28;20034;-64
2022/05/27 02:29:20;;;;;;;2.45;2.20;;;;;;;17.92;71.46;100751.59;5010168;28;20022;-65
2022/05/27 02:31:51;;;;;;;4.13;2.03;;;;;;;17.86;71.39;100744.97;5016518;28;20045;-65
2022/05/27 02:37:15;;;;;;;4.82;2.30;;;;;;;17.93;71.62;100751.41;5013414;28;20044;-64
2022/05/27 02:39:41;;;;;;;3.95;2.10;;;;;;;17.95;71.68;100748.53;5029590;28;20361;-65
2022/05/27 02:42:30;;;;;;;3.03;1.98;;;;;;;17.93;71.04;100740.56;5029622;28;20025;-65
2022/05/27 02:45:24;;;;;;;4.32;1.95;;;;;;;17.92;70.77;100735.31;5029662;28;20100;-65
2022/05/27 02:48:07;;;;;;;4.15;2.08;;;;;;;18.01;70.92;100756.00;5029689;28;20384;-65
2022/05/27 02:51:04;;;;;;;3.67;1.90;;;;;;;18.00;70.67;100747.00;5022285;28;20021;-66
2022/05/27 02:54:00;;;;;;;3.75;2.10;;;;;;;18.01;70.93;100753.28;5035593;28;20481;-65
2022/05/27 02:56:52;;;;;;;2.70;1.83;;;;;;;18.03;69.86;100748.53;5029059;28;20038;-66
2022/05/27 02:59:19;;;;;;;3.42;1.80;;;;;;;17.94;69.53;100736.00;5015449;28;20693;-67
2022/05/27 03:01:47;;;;;;;6.20;2.33;;;;;;;18.00;69.56;100752.41;5009638;28;20046;-65
2022/05/27 03:04:14;;;;;;;5.35;2.30;;;;;;;17.99;69.64;100747.16;5017743;28;20092;-65
2022/05/27 03:07:10;;;;;;;3.10;2.13;;;;;;;17.99;69.31;100749.88;5029215;28;20025;-65
2022/05/27 03:09:53;;;;;;;6.90;2.60;;;;;;;18.00;70.02;100746.16;5014884;28;20457;-64
2022/05/27 03:12:21;;;;;;;4.90;2.30;;;;;;;18.00;69.99;100754.31;5010506;28;20769;-65
2022/05/27 03:15:08;;;;;;;5.80;2.90;;;;;;;17.99;69.79;100752.59;5033337;28;20113;-65
2022/05/27 03:18:02;;;;;;;11.25;2.35;;;;;;;17.96;69.57;100756.50;5024041;28;20037;-64
2022/05/27 03:20:48;;;;;;;5.00;2.60;;;;;;;17.92;69.58;100752.44;5018818;28;20053;-65
2022/05/27 03:23:19;;;;;;;6.63;2.53;;;;;;;17.87;69.21;100737.69;5009359;28;20030;-65
2022/05/27 03:25:54;;;;;;;7.57;2.65;;;;;;;17.88;69.14;100744.81;5009278;28;20037;-65
2022/05/27 03:28:27;;;;;;;5.78;2.78;;;;;;;17.96;69.29;100750.25;5008695;28;20386;-64
2022/05/27 03:31:35;;;;;;;5.90;2.45;;;;;;;17.96;69.67;100756.50;5017090;28;20680;-66
2022/05/27 03:34:08;;;;;;;8.30;2.88;;;;;;;17.98;70.78;100761.75;5028474;28;20087;-65
2022/05/27 03:36:50;;;;;;;12.90;2.90;;;;;;;17.97;70.95;100751.94;5022811;28;20033;-65
2022/05/27 03:39:24;;;;;;;4.57;2.38;;;;;;;17.95;71.23;100754.81;5015969;28;20029;-65
2022/05/27 03:41:52;;;;;;;;;;;;;;;17.94;71.71;100755.00;5028903;28;20484;-65
2022/05/27 03:44:22;;;;;;;7.78;3.50;;;;;;;17.96;71.65;100758.38;5024136;28;19913;-65
2022/05/27 03:46:50;;;;;;;8.68;3.33;;;;;;;17.95;71.91;100756.69;5012718;28;20060;-65
2022/05/27 03:49:16;;;;;;;6.20;2.90;;;;;;;17.85;72.25;100731.59;5016845;28;20124;-65
2022/05/27 03:51:59;;;;;;;5.43;2.70;;;;;;;17.97;71.74;100760.06;5026548;28;20109;-64
2022/05/27 03:54:24;;;;;;;5.80;3.33;;;;;;;17.99;72.57;100766.16;5011011;28;20108;-65
2022/05/27 03:56:50;;;;;;;6.80;3.03;;;;;;;17.97;72.90;100762.78;5011362;28;20057;-64
2022/05/27 03:59:17;;;;;;;6.20;3.22;;;;;;;17.98;73.28;100759.91;5029139;28;20074;-66
2022/05/27 04:01:47;;;;;;;7.53;3.17;;;;;;;17.96;73.85;100752.97;5027881;28;20021;-66
2022/05/27 04:04:14;;;;;;;8.02;3.08;;;;;;;18.05;74.59;100766.34;5035234;28;20096;-65
2022/05/27 04:06:40;;;;;;;8.82;3.03;;;;;;;18.16;73.81;100773.28;5047939;28;20033;-66
2022/05/27 04:09:06;;;;;;;6.28;3.33;;;;;;;18.28;73.19;100779.22;5042596;28;20036;-65
2022/05/27 04:11:32;;;;;;;6.03;3.40;;;;;;;18.36;71.38;100762.88;5046982;28;20112;-64
2022/05/27 04:13:58;;;;;;;4.90;3.08;;;;;;;18.60;70.84;100769.13;5047332;28;20039;-66
2022/05/27 04:16:25;;;;;;;4.68;2.63;;;;;;;18.76;70.60;100774.50;5030000;28;20030;-65
2022/05/27 04:18:51;;;;;;;3.55;2.72;;;;;;;18.95;68.87;100771.34;5041034;28;20532;-66
2022/05/27 04:21:17;;;;;;;3.90;2.47;;;;;;;19.15;67.38;100769.88;5036539;28;20033;-66
2022/05/27 04:23:43;;;;;;;5.20;2.65;;;;;;;19.30;66.36;100759.13;5027298;28;20032;-66
2022/05/27 04:26:09;;;;;;;3.13;2.22;;;;;;;19.40;65.57;100766.03;5027279;28;20404;-65
2022/05/27 04:28:34;;;;;;;5.22;2.75;;;;;;;19.38;65.48;100761.81;5026988;28;20025;-64
2022/05/27 04:31:01;;;;;;;3.78;2.25;;;;;;;19.38;65.32;100754.47;5027193;28;20049;-64
2022/05/27 04:33:27;;;;;;;5.03;2.45;;;;;;;19.30;65.47;100746.38;5025835;28;20381;-65
2022/05/27 04:35:56;;;;;;;4.60;2.42;;;;;;;19.33;65.78;100756.03;5034078;28;20071;-65
2022/05/27 04:38:23;;;;;;;6.13;2.53;;;;;;;19.31;66.65;100756.22;5046718;28;20036;-66
2022/05/27 04:40:48;;;;;;;5.82;3.05;;;;;;;19.38;66.56;100750.91;5047178;28;20064;-66
2022/05/27 04:43:14;;;;;;;3.20;2.50;;;;;;;19.56;65.95;100752.31;5046830;28;20510;-64
2022/05/27 04:45:40;;;;;;;6.75;2.83;;;;;;;19.77;65.25;100755.19;5046733;28;20071;-65
2022/05/27 04:48:06;;;;;;;5.07;2.55;;;;;;;19.93;65.02;100751.50;5031133;28;20055;-64
2022/05/27 04:50:33;;;;;;;6.05;3.03;;;;;;;20.08;64.55;100749.63;5027066;28;20081;-65
2022/05/27 04:52:58;;;;;;;5.20;2.53;;;;;;;20.37;64.53;100765.22;5035150;28;20038;-66
2022/05/27 04:55:24;;;;;;;4.93;3.08;;;;;;;20.50;64.02;100746.34;5037462;28;20033;-65
2022/05/27 04:57:53;;;;;;;5.90;2.53;;;;;;;20.61;63.57;100756.75;5039217;28;20046;-65
2022/05/27 05:00:28;;;;;;;7.68;2.90;;;;;;;20.70;63.55;100755.63;5025293;28;20036;-65
2022/05/27 05:02:57;;;;;;;4.70;2.28;;;;;;;20.84;63.09;100752.03;5026490;28;20079;-64
2022/05/27 05:05:26;;;;;;;5.85;2.50;;;;;;;20.96;62.56;100750.56;5026585;28;20026;-64
2022/05/27 05:07:57;;;;;;;4.38;2.60;;;;;;;21.10;61.72;100744.22;5026614;28;20466;-65
2022/05/27 05:10:23;;;;;;;3.95;1.52;;;;;;;21.27;61.49;100748.38;5024933;28;20419;-65
2022/05/27 05:12:50;;;;;;;10.80;2.50;;;;;;;21.43;59.90;100748.16;5041944;28;20049;-65
2022/05/27 05:15:16;;;;;;;5.45;2.00;;;;;;;21.58;59.28;100747.06;5026618;28;20038;-66
2022/05/27 05:17:42;;;;;;;3.63;1.70;;;;;;;21.77;59.29;100756.50;5026479;28;20091;-66
2022/05/27 05:20:12;;;;;;;4.63;1.85;;;;;;;21.91;58.76;100744.66;5027043;28;20057;-64
2022/05/27 05:22:37;;;;;;;7.15;1.83;;;;;;;22.06;58.30;100748.16;5027373;28;20018;-65
2022/05/27 05:25:03;;;;;;;4.43;1.60;;;;;;;22.07;58.01;100725.25;5029664;28;20053;-65
2022/05/27 05:27:29;;;;;;;5.28;2.10;;;;;;;22.25;57.59;100742.00;5041776;28;20032;-64
2022/05/27 05:29:56;;;;;;;4.43;1.45;;;;;;;22.30;57.83;100740.34;5046229;28;20039;-64
2022/05/27 05:32:22;;;;;;;7.38;1.77;;;;;;;22.46;57.70;100736.44;5044995;28;20049;-65
2022/05/27 05:34:48;;;;;;;4.93;1.75;;;;;;;22.64;57.07;100742.28;5046802;28;20067;-66
2022/05/27 05:37:15;;;;;;;4.03;1.27;;;;;;;22.78;56.02;100743.16;5046648;28;20108;-66
2022/05/27 05:39:40;;;;;;;3.25;1.30;;;;;;;22.89;55.77;100748.91;5044647;28;20036;-66
2022/05/27 05:42:07;;;;;;;5.10;1.48;;;;;;;22.95;55.32;100737.13;5026977;28;20084;-65
2022/05/27 05:44:33;;;;;;;1.88;1.30;;;;;;;22.97;55.13;100729.59;5027944;28;20076;-65
2022/05/27 05:47:00;;;;;;;4.75;1.85;;;;;;;23.04;55.28;100714.03;5030609;28;20112;-64
2022/05/27 05:49:26;;;;;;;3.58;1.27;;;;;;;23.24;54.75;100720.44;5030281;28;20069;-65
2022/05/27 05:51:51;;;;;;;1.92;1.40;;;;;;;;;;5030348;28;20600;-66
2022/05/27 05:54:19;;;;;;;3.13;1.60;;;;;;;23.61;53.54;100728.09;5030501;28;20043;-66
2022/05/27 05:56:46;;;;;;;5.20;1.52;;;;;;;23.79;52.56;100724.72;5030140;28;20428;-65
2022/05/27 05:59:12;;;;;;;1.98;1.35;;;;;;;23.91;51.79;100718.41;5029564;28;20045;-66
2022/05/27 06:01:38;;;;;;;4.45;1.58;;;;;;;24.02;51.30;100723.28;5029868;28;20049;-66
2022/05/27 06:04:04;;;;;;;5.43;2.63;;;;;;;24.21;50.88;100730.66;5030042;28;20052;-66
2022/05/27 06:06:29;;;;;;;6.95;2.05;;;;;;;24.37;50.61;100730.22;5059317;28;20044;-65
2022/05/27 06:08:54;;;;;;;3.92;1.08;;;;;;;24.55;49.98;100726.78;5030225;28;20078;-65
2022/05/27 06:11:21;;;;;;;3.53;0.88;;;;;;;24.75;48.27;100726.75;5062010;28;20366;-66
2022/05/27 06:13:46;;;;;;;6.07;1.52;;;;;;;24.92;46.52;100730.72;5022493;28;20021;-65
2022/05/27 06:16:12;;;;;;;2.72;1.00;;;;;;;25.02;46.85;100720.94;5029908;28;20582;-65
2022/05/27 06:18:37;;;;;;;4.50;1.00;;;;;;;25.08;46.58;100714.56;5030214;28;20075;-65
2022/05/27 06:21:03;;;;;;;4.25;1.30;;;;;;;25.22;45.86;100715.34;5030200;28;20528;-65
2022/05/27 06:23:29;;;;;;;2.40;1.08;;;;;;;25.46;45.15;100728.31;5029633;28;20108;-65
2022/05/27 06:26:00;;;;;;;1.40;0.98;;;;;;;25.64;44.18;100731.19;5029992;28;20068;-66
2022/05/27 06:36:39;;;;;;;4.05;0.82;;;;;;;26.21;42.73;100725.44;5010323;28;20120;-65
2022/05/27 06:39:05;;;;;;;2.00;0.80;;;;;;;26.30;42.16;100721.31;5010061;28;20085;-66
2022/05/27 06:41:31;;;;;;;1.90;0.93;;;;;;;26.44;42.09;100728.41;5009658;28;20100;-66
2022/05/27 06:43:57;;;;;;;0.93;0.90;;;;;;;26.44;42.22;100709.97;5009936;28;20030;-66
2022/05/27 06:46:23;;;;;;;0.82;0.60;;;;;;;26.63;41.33;100721.03;5010030;28;20116;-66
2022/05/27 06:48:48;;;;;;;2.10;0.98;;;;;;;26.73;41.13;100722.19;5009981;28;20037;-64
2022/05/27 06:51:14;;;;;;;3.40;1.10;;;;;;;26.76;41.32;100712.59;5009824;28;20485;-66
2022/05/27 06:53:39;;;;;;;4.50;0.95;;;;;;;26.74;41.43;100700.97;5008138;28;20026;-65
2022/05/27 06:56:07;;;;;;;4.10;0.98;;;;;;;26.91;40.91;100718.53;5009065;28;20053;-65
2022/05/27 06:58:33;;;;;;;1.38;0.77;;;;;;;26.97;40.79;100715.72;5025133;28;20811;-65
2022/05/27 07:00:59;;;;;;;3.28;0.88;;;;;;;27.08;40.13;100708.59;5013950;28;20414;-65
2022/05/27 07:03:24;;;;;;;2.97;0.70;;;;;;;27.16;39.52;100716.53;5030985;28;20044;-65
2022/05/27 07:05:50;;;;;;;3.78;0.75;;;;;;;27.21;39.15;100711.19;5049039;28;20032;-66
2022/05/27 07:08:15;;;;;;;1.42;0.70;;;;;;;27.23;39.02;100709.91;5048780;28;20067;-65
2022/05/27 07:10:41;;;;;;;1.10;0.75;;;;;;;27.25;38.48;100699.50;5049018;28;20039;-66
2022/05/27 07:13:06;;;;;;;2.10;0.73;;;;;;;27.33;37.67;100703.81;5047405;28;20031;-65
2022/05/27 07:15:32;;;;;;;2.60;0.77;;;;;;;27.32;37.64;100707.66;5042458;28;20029;-65
2022/05/27 07:17:58;;;;;;;1.25;0.55;;;;;;;27.29;37.41;100711.72;5028829;28;20031;-64
2022/05/27 07:20:24;;;;;;;1.42;0.60;;;;;;;27.18;37.62;100687.66;5028805;28;20036;-66
2022/05/27 07:22:50;;;;;;;2.42;0.80;;;;;;;27.34;36.98;100703.56;5029118;28;20532;-66
2022/05/27 07:25:16;;;;;;;2.30;0.70;;;;;;;27.36;37.25;100706.09;5028417;28;20021;-66
2022/05/27 07:27:42;;;;;;;6.80;0.80;;;;;;;27.45;36.92;100705.53;5044669;28;20112;-65
2022/05/27 07:30:15;;;;;;;1.92;0.82;;;;;;;27.39;37.44;100697.38;5047290;28;20055;-66
2022/05/27 07:32:43;;;;;;;2.22;0.93;;;;;;;27.39;37.64;100700.97;5063656;28;20075;-65
2022/05/27 07:35:09;;;;;;;2.10;0.60;;;;;;;27.34;37.90;100697.25;5048481;28;20110;-65
2022/05/27 07:37:35;;;;;;;1.75;0.77;;;;;;;27.42;37.71;100686.72;5038352;28;20416;-67
2022/05/27 07:40:01;;;;;;;1.38;0.70;;;;;;;27.46;37.51;100692.59;5028538;28;20040;-66
2022/05/27 07:42:27;;;;;;;2.85;0.70;;;;;;;27.53;37.76;100688.66;5028147;28;20026;-65
2022/05/27 07:44:52;;;;;;;2.35;0.77;;;;;;;27.71;37.38;100694.09;5028602;28;20116;-65
2022/05/27 07:47:19;;;;;;;3.85;0.70;;;;;;;27.75;37.30;100686.19;5028016;28;20136;-66
2022/05/27 07:49:45;;;;;;;2.08;0.63;;;;;;;27.84;36.86;100685.63;5028160;28;20083;-66
2022/05/27 07:52:11;;;;;;;1.60;0.60;;;;;;;27.90;37.02;100690.22;5031354;28;20029;-66
2022/05/27 07:54:36;;;;;;;2.20;0.70;;;;;;;27.92;37.17;100692.75;5046262;28;20029;-65
2022/05/27 07:57:23;;;;;;;2.50;0.65;;;;;;;27.88;37.04;100689.59;5048057;28;20048;-66
2022/05/27 07:59:49;;;;;;;2.85;0.90;;;;;;;27.98;37.07;100677.97;5035049;28;20044;-66
2022/05/27 08:02:15;;;;;;;1.45;0.70;;;;;;;28.02;36.88;100681.94;5041227;28;20117;-66
2022/05/27 08:04:40;;;;;;;4.88;0.77;;;;;;;28.03;36.46;100678.97;5045389;28;20049;-65
2022/05/27 08:07:07;;;;;;;1.27;0.68;;;;;;;27.98;36.71;100670.53;5027468;28;20094;-65
2022/05/27 08:09:32;;;;;;;1.15;0.80;;;;;;;28.15;37.14;100677.00;5027380;28;20049;-66
2022/05/27 08:11:57;;;;;;;1.85;0.60;;;;;;;28.27;37.37;100683.38;5027797;28;20053;-66
2022/05/27 08:14:23;;;;;;;2.78;0.90;;;;;;;28.37;37.19;100680.00;5032728;28;20437;-65
2022/05/27 08:16:48;;;;;;;0.57;0.50;;;;;;;28.39;36.63;100675.94;5041179;28;20483;-67
2022/05/27 08:19:14;;;;;;;1.38;0.73;;;;;;;28.46;37.07;100671.16;5038689;28;20614;-66
2022/05/27 08:21:39;;;;;;;2.83;0.77;;;;;;;28.48;37.09;100676.44;5047852;28;20029;-65
2022/05/27 08:24:09;;;;;;;1.30;0.70;;;;;;;28.56;37.02;100667.75;5047843;28;20462;-65
2022/05/27 08:26:35;;;;;;;1.05;0.73;;;;;;;28.52;36.83;100659.16;5061066;28;20120;-66
2022/05/27 08:29:01;;;;;;;2.53;0.60;;;;;;;28.61;36.27;100667.88;5027635;28;20601;-66
2022/05/27 08:31:26;;;;;;;2.00;0.60;;;;;;;28.54;36.35;100658.91;5041050;28;20120;-66
2022/05/27 08:39:20;;;;;;;1.02;0.63;;;;;;;28.57;35.76;100671.38;5047618;28;19966;-66
2022/05/27 08:42:16;;;;;;;1.38;0.75;;;;;;;28.57;36.06;100665.84;5047434;28;20544;-66
2022/05/27 08:44:51;;;;;;;1.17;0.65;;;;;;;28.61;37.07;100667.88;5047374;28;20486;-66
2022/05/27 08:47:24;;;;;;;2.22;0.70;;;;;;;28.70;36.58;100669.19;5047144;28;20029;-66
2022/05/27 08:50:08;;;;;;;1.40;0.77;;;;;;;28.68;36.11;100665.81;5047071;28;20044;-65
2022/05/27 08:53:12;;;;;;;2.50;0.85;;;;;;;28.73;36.15;100667.84;5033763;28;20087;-67
2022/05/27 09:01:37;;;;;;;2.90;0.80;;;;;;;28.81;36.20;100648.97;5027155;28;20040;-67
2022/05/27 09:04:21;;;;;;;1.48;0.60;;;;;;;28.86;36.68;100643.56;5027189;28;20493;-66
2022/05/27 09:07:15;;;;;;;1.15;0.70;;;;;;;28.85;36.39;100646.56;5042215;28;20033;-66
2022/05/27 09:09:40;;;;;;;2.75;0.52;;;;;;;28.75;36.43;100632.56;5027353;28;20025;-66
2022/05/27 09:12:24;;;;;;;2.47;0.70;;;;;;;28.85;36.57;100636.34;5059081;28;20114;-67
2022/05/27 09:15:18;;;;;;;3.42;0.90;;;;;;;28.82;36.59;100639.59;5011519;28;20033;-67
2022/05/27 09:17:53;;;;;;;1.38;0.82;;;;;;;28.86;36.71;100639.97;5021465;28;20037;-65
2022/05/27 09:20:34;;;;;;;0.80;0.70;;;;;;;28.91;36.59;100637.28;5010247;28;20061;-66
2022/05/27 09:23:25;;;;;;;3.28;0.88;;;;;;;28.87;36.82;100625.06;5011540;28;20030;-66
2022/05/27 09:26:16;;;;;;;0.85;0.50;;;;;;;28.87;37.00;100630.56;5011214;28;20038;-67
2022/05/27 09:29:00;;;;;;;4.45;0.90;;;;;;;28.91;37.53;100635.38;5026677;28;20121;-66
2022/05/27 09:31:41;;;;;;;2.00;0.75;;;;;;;28.98;36.96;100630.53;5031084;28;20025;-67
2022/05/27 09:34:10;;;;;;;1.20;0.68;;;;;;;28.99;36.48;100623.09;5031009;28;20431;-67
2022/05/27 09:36:40;;;;;;;2.35;0.70;;;;;;;29.02;36.84;100617.94;5030366;28;20033;-66
2022/05/27 09:39:13;;;;;;;2.10;1.02;;;;;;;29.01;36.85;100612.66;5046243;28;20473;-67
2022/05/27 09:42:06;;;;;;;0.80;0.60;;;;;;;29.08;36.75;100611.41;5062637;28;20045;-66
2022/05/27 09:44:45;;;;;;;2.38;0.90;;;;;;;29.14;36.60;100604.09;5030486;28;20073;-66
2022/05/27 09:47:10;;;;;;;1.90;0.70;;;;;;;29.22;36.41;100598.13;5045843;28;20136;-66
2022/05/27 09:49:36;;;;;;;0.80;0.63;;;;;;;29.23;36.66;100595.13;5030492;28;20413;-66
2022/05/27 09:52:02;;;;;;;1.65;1.00;;;;;;;29.28;36.63;100594.38;5030561;28;20116;-66
2022/05/27 09:54:51;;;;;;;0.70;0.60;;;;;;;29.35;36.34;100595.91;5030475;28;20064;-66
2022/05/27 09:57:23;;;;;;;1.85;0.80;;;;;;;29.25;36.21;100592.97;5045333;28;20060;-65
2022/05/27 09:59:58;;;;;;;0.95;0.70;;;;;;;29.16;35.89;100579.78;5030382;28;20433;-67
2022/05/27 10:02:26;;;;;;;2.38;0.70;;;;;;;29.12;35.91;100584.13;5030011;28;20048;-65
2022/05/27 10:05:17;;;;;;;1.92;0.77;;;;;;;29.06;36.24;100582.38;5030190;28;20033;-67
2022/05/27 10:07:51;;;;;;;1.40;1.00;;;;;;;28.96;36.70;100560.06;5023872;28;20026;-67
2022/05/27 10:10:30;;;;;;;1.33;0.88;;;;;;;29.05;36.70;100581.50;5020134;28;20499;-66
2022/05/27 10:13:12;;;;;;;2.78;0.77;;;;;;;29.12;36.74;100573.94;5011703;28;20102;-66
2022/05/27 10:15:38;;;;;;;1.00;0.70;;;;;;;29.18;36.30;100575.69;5010149;28;20045;-66
2022/05/27 10:18:26;;;;;;;2.20;1.02;;;;;;;29.17;36.77;100575.94;5021866;28;20113;-65
2022/05/27 10:21:14;;;;;;;1.23;0.80;;;;;;;29.23;36.74;100563.88;5045162;28;20195;-66
2022/05/27 10:23:43;;;;;;;1.17;0.60;;;;;;;29.21;36.64;100557.78;5029664;28;20025;-66
2022/05/27 10:26:31;;;;;;;1.00;0.90;;;;;;;29.23;35.94;100559.19;5029730;28;20459;-65
2022/05/27 10:29:08;;;;;;;2.33;0.90;;;;;;;29.23;36.22;100556.44;5045090;28;20026;-66
2022/05/27 10:31:35;;;;;;;0.95;0.80;;;;;;;29.19;36.43;100552.50;5028217;28;20049;-66
2022/05/27 10:34:00;;;;;;;1.30;0.80;;;;;;;29.14;36.40;100546.06;5029809;28;20124;-65
2022/05/27 10:36:32;;;;;;;3.28;0.90;;;;;;;29.03;37.01;100533.09;5029284;28;20052;-65
2022/05/27 10:39:14;;;;;;;1.42;0.70;;;;;;;29.10;36.85;100536.56;5029651;28;20029;-66
2022/05/27 10:41:55;;;;;;;2.35;0.95;;;;;;;29.11;37.02;100549.31;5029674;28;20025;-66
2022/05/27 10:44:52;;;;;;;1.00;0.90;;;;;;;29.01;37.34;100529.78;5024284;28;20101;-66
2022/05/27 10:47:59;;;;;;;3.97;0.65;;;;;;;29.03;36.90;100517.41;5006094;28;20042;-67
2022/05/27 10:50:40;;;;;;;1.38;0.60;;;;;;;29.04;36.97;100526.50;5008939;28;20405;-66
2022/05/27 10:53:23;;;;;;;1.77;0.77;;;;;;;29.02;36.88;100514.84;5028054;28;20488;-65
2022/05/27 10:56:09;;;;;;;3.78;1.10;;;;;;;28.99;36.92;100513.44;5013554;28;20374;-66
2022/05/27 11:02:07;;;;;;;2.65;0.80;;;;;;;29.05;37.00;100511.63;5011535;28;20041;-66
2022/05/27 11:04:57;;;;;;;1.48;0.80;;;;;;;29.05;36.72;100498.63;5047322;28;20548;-66
2022/05/27 11:07:36;;;;;;;2.55;0.88;;;;;;;28.99;37.27;100498.78;5045738;28;20385;-66
2022/05/27 11:10:34;;;;;;;1.52;0.80;;;;;;;28.96;37.47;100482.72;5031323;28;20025;-65
2022/05/27 11:16:46;;;;;;;0.90;0.80;;;;;;;28.90;37.12;100483.69;5033963;28;20035;-67
2022/05/27 11:19:14;;;;;;;1.65;0.80;;;;;;;28.82;37.05;100479.41;5055520;28;20036;-66
2022/05/27 11:22:08;;;;;;;1.17;0.90;;;;;;;28.74;37.32;100477.09;5049388;28;20403;-67
2022/05/27 11:24:59;;;;;;;1.05;0.90;;;;;;;28.73;37.54;100466.28;5049065;28;20033;-66
2022/05/27 11:27:36;;;;;;;1.30;1.13;;;;;;;28.71;37.97;100466.53;5027682;28;20037;-66
2022/05/27 11:30:19;;;;;;;4.53;1.00;;;;;;;28.74;37.96;100467.94;5034108;28;20032;-66
2022/05/27 11:33:12;;;;;;;3.55;1.13;;;;;;;28.71;37.73;100458.25;5050426;28;20036;-66
2022/05/27 11:36:01;;;;;;;1.25;1.00;;;;;;;28.71;37.73;100452.72;5026072;28;20033;-66
2022/05/27 11:38:44;;;;;;;1.60;0.93;;;;;;;28.69;37.80;100452.13;5040547;28;20064;-66
2022/05/27 11:41:32;;;;;;;2.08;1.00;;;;;;;28.70;37.75;100442.78;5048297;28;20542;-66
2022/05/27 11:44:27;;;;;;;2.58;1.02;;;;;;;28.67;37.85;100425.88;5047452;28;20068;-65
2022/05/27 11:47:27;;;;;;;2.67;0.93;;;;;;;28.70;37.81;100420.69;5047623;28;20035;-67
2022/05/27 11:50:06;;;;;;;2.30;0.98;;;;;;;28.72;37.90;100417.69;5029888;28;20038;-67
2022/05/27 11:52:31;;;;;;;1.58;1.00;;;;;;;28.80;38.08;100417.25;5025789;28;20479;-66
2022/05/27 11:55:18;;;;;;;3.28;1.25;;;;;;;28.76;37.80;100421.59;5042792;28;20103;-67
2022/05/27 11:58:07;;;;;;;3.55;1.63;;;;;;;28.76;37.45;100416.94;5027434;28;20115;-67
2022/05/27 12:00:38;;;;;;;3.83;1.67;;;;;;;28.74;37.72;100409.97;5027344;28;20374;-66
2022/05/27 12:03:32;;;;;;;3.83;1.65;;;;;;;28.66;37.84;100389.13;5027630;28;20107;-67
2022/05/27 12:06:07;;;;;;;1.98;1.50;;;;;;;28.72;37.55;100384.56;5027913;28;20044;-67
2022/05/27 12:08:40;;;;;;;3.65;1.30;;;;;;;28.63;37.87;100372.25;5027948;28;20033;-67
2022/05/27 12:11:14;;;;;;;2.22;1.55;;;;;;;28.66;37.81;100371.75;5028376;28;20041;-66
2022/05/27 12:14:06;;;;;;;3.92;1.35;;;;;;;28.62;37.82;100378.84;5042727;28;20041;-65
2022/05/27 12:16:37;;;;;;;2.72;1.23;;;;;;;28.62;37.65;100373.34;5027543;28;20032;-66
2022/05/27 12:19:16;;;;;;;2.47;1.58;;;;;;;28.50;38.06;100363.19;5019737;28;20379;-67
2022/05/27 12:21:46;;;;;;;2.70;1.77;;;;;;;28.53;38.14;100370.97;5008046;28;20108;-67
2022/05/27 12:24:36;;;;;;;3.05;1.58;;;;;;;28.54;37.76;100358.84;5008115;28;20034;-69
2022/05/27 12:27:04;;;;;;;2.70;1.58;;;;;;;28.59;37.79;100357.28;5019234;28;20054;-66
2022/05/27 12:29:31;;;;;;;2.63;1.73;;;;;;;28.63;37.75;100339.94;5027663;28;20466;-65